createdAt,value
2022-11-28T00:01:20.073Z,15.40
2022-11-28T00:03:47.377Z,19.00
2022-11-28T00:06:15.220Z,21.52
2022-11-28T00:08:42.771Z,21.60
2022-11-28T00:11:12.455Z,13.68
2022-11-28T00:13:40.171Z,12.30
2022-11-28T00:16:09.582Z,20.77
2022-11-28T00:18:36.628Z,17.80
2022-11-28T00:21:10.193Z,17.83
2022-11-28T00:23:37.578Z,16.70
2022-11-28T00:26:08.079Z,16.88
2022-11-28T00:28:35.073Z,20.45
2022-11-28T00:31:02.220Z,18.17
2022-11-28T00:33:29.285Z,15.25
2022-11-28T00:36:04.279Z,13.05
2022-11-28T00:38:32.077Z,21.10
2022-11-28T00:41:15.997Z,19.73
2022-11-28T00:43:44.843Z,17.08
2022-11-28T00:46:13.578Z,17.50
2022-11-28T00:48:41.233Z,19.38
2022-11-28T00:51:14.432Z,16.42
2022-11-28T00:53:42.719Z,16.95
2022-11-28T00:56:15.082Z,15.93
2022-11-28T00:58:42.946Z,13.82
2022-11-28T01:01:11.921Z,14.10
2022-11-28T01:03:39.926Z,15.55
2022-11-28T01:06:08.123Z,17.33
2022-11-28T01:08:35.527Z,12.57
2022-11-28T01:11:03.230Z,17.88
2022-11-28T01:13:30.639Z,11.90
2022-11-28T01:15:58.847Z,16.08
2022-11-28T01:18:25.955Z,21.20
2022-11-28T01:20:52.939Z,21.25
2022-11-28T01:23:20.437Z,17.65
2022-11-28T01:25:47.476Z,17.75
2022-11-28T01:28:14.648Z,22.85
2022-11-28T01:30:41.763Z,13.55
2022-11-28T01:33:08.726Z,13.77
2022-11-28T01:35:35.778Z,10.43
2022-11-28T01:38:02.743Z,15.90
2022-11-28T01:40:29.924Z,11.65
2022-11-28T01:42:56.910Z,14.75
2022-11-28T01:45:33.580Z,12.07
2022-11-28T01:48:03.913Z,7.47
2022-11-28T01:50:33.189Z,14.82
2022-11-28T01:53:03.825Z,11.68
2022-11-28T01:55:35.593Z,12.55
2022-11-28T01:58:02.707Z,12.75
2022-11-28T02:00:29.908Z,12.02
2022-11-28T02:03:19.042Z,8.85
2022-11-28T02:05:47.552Z,10.73
2022-11-28T02:08:14.563Z,16.20
2022-11-28T02:10:50.520Z,10.40
2022-11-28T02:13:36.118Z,10.80
2022-11-28T02:16:30.588Z,12.10
2022-11-28T02:19:12.678Z,12.10
2022-11-28T02:22:19.343Z,11.35
2022-11-28T02:25:14.645Z,11.43
2022-11-28T02:28:20.602Z,11.05
2022-11-28T02:31:08.741Z,17.17
2022-11-28T02:33:59.657Z,18.05
2022-11-28T02:36:42.385Z,14.43
2022-11-28T02:39:31.442Z,10.80
2022-11-28T02:42:10.624Z,15.52
2022-11-28T02:45:06.862Z,14.00
2022-11-28T02:47:37.963Z,19.98
2022-11-28T02:50:47.674Z,16.30
2022-11-28T02:53:20.171Z,18.95
2022-11-28T02:55:48.850Z,19.50
2022-11-28T02:58:15.936Z,13.38
2022-11-28T03:00:45.641Z,15.13
2022-11-28T03:03:39.582Z,13.52
2022-11-28T03:06:19.149Z,18.92
2022-11-28T03:09:23.627Z,15.10
2022-11-28T03:12:08.345Z,11.55
2022-11-28T03:14:38.134Z,12.05
2022-11-28T03:17:44.405Z,20.42
2022-11-28T03:20:43.479Z,11.73
2022-11-28T03:23:21.447Z,15.32
2022-11-28T03:26:05.983Z,16.25
2022-11-28T03:28:45.368Z,14.68
2022-11-28T03:31:29.697Z,12.38
2022-11-28T03:33:59.683Z,14.32
2022-11-28T03:36:39.097Z,12.15
2022-11-28T03:39:11.192Z,12.00
2022-11-28T03:42:00.171Z,14.43
2022-11-28T03:44:43.040Z,9.85
2022-11-28T03:47:10.826Z,12.68
2022-11-28T03:49:42.126Z,13.85
2022-11-28T03:52:19.820Z,13.38
2022-11-28T03:55:09.917Z,10.20
2022-11-28T03:57:48.127Z,15.57
2022-11-28T04:00:16.079Z,12.55
2022-11-28T04:03:05.030Z,16.45
2022-11-28T04:05:32.170Z,15.60
2022-11-28T04:08:06.250Z,14.95
2022-11-28T04:10:38.362Z,11.52
2022-11-28T04:13:21.708Z,14.27
2022-11-28T04:16:00.928Z,13.35
2022-11-28T04:18:52.760Z,9.32
2022-11-28T04:21:34.503Z,13.35
2022-11-28T04:24:13.102Z,15.93
2022-11-28T04:26:53.114Z,15.60
2022-11-28T04:29:24.080Z,14.40
2022-11-28T04:31:56.114Z,11.75
2022-11-28T04:34:24.224Z,13.02
2022-11-28T04:36:54.192Z,10.15
2022-11-28T04:39:26.273Z,16.83
2022-11-28T04:42:02.088Z,12.90
2022-11-28T04:44:55.046Z,13.45
2022-11-28T04:47:23.077Z,9.10
2022-11-28T04:49:50.247Z,14.43
2022-11-28T04:52:27.365Z,10.57
2022-11-28T04:55:15.574Z,13.43
2022-11-28T04:57:55.707Z,12.00
2022-11-28T05:00:24.200Z,11.20
2022-11-28T05:02:53.290Z,10.73
2022-11-28T05:05:24.321Z,9.93
2022-11-28T05:07:52.429Z,11.20
2022-11-28T05:10:19.780Z,9.68
2022-11-28T05:12:46.859Z,10.25
2022-11-28T05:15:19.046Z,12.45
2022-11-28T05:17:46.977Z,13.60
2022-11-28T05:20:14.511Z,10.27
2022-11-28T05:22:41.813Z,9.55
2022-11-28T05:25:09.198Z,11.07
2022-11-28T05:27:36.430Z,10.23
2022-11-28T05:30:05.575Z,12.85
2022-11-28T05:32:33.004Z,14.63
2022-11-28T05:35:00.071Z,14.07
2022-11-28T05:37:27.273Z,15.00
2022-11-28T05:39:54.473Z,13.30
2022-11-28T05:42:21.713Z,11.70
2022-11-28T05:44:48.759Z,11.45
2022-11-28T05:47:18.507Z,12.70
2022-11-28T05:49:47.104Z,12.23
2022-11-28T05:54:40.943Z,16.27
2022-11-28T05:57:08.240Z,12.85
2022-11-28T05:59:35.469Z,11.32
2022-11-28T06:02:02.495Z,7.18
2022-11-28T06:04:29.534Z,9.98
2022-11-28T06:06:56.541Z,11.15
2022-11-28T06:09:26.050Z,14.23
2022-11-28T06:11:53.633Z,10.98
2022-11-28T06:14:20.615Z,7.75
2022-11-28T06:16:47.613Z,8.07
2022-11-28T06:19:14.612Z,11.85
2022-11-28T06:21:41.770Z,8.98
2022-11-28T06:24:10.768Z,10.85
2022-11-28T06:26:37.741Z,8.13
2022-11-28T06:29:04.729Z,9.63
2022-11-28T06:31:31.790Z,10.77
2022-11-28T06:33:58.980Z,9.55
2022-11-28T06:36:26.644Z,10.30
2022-11-28T06:38:54.296Z,9.80
2022-11-28T06:41:22.988Z,12.02
2022-11-28T06:43:50.549Z,13.27
2022-11-28T06:46:19.649Z,11.35
2022-11-28T06:48:50.565Z,9.73
2022-11-28T06:51:18.248Z,13.57
2022-11-28T06:53:45.234Z,9.60
2022-11-28T06:56:14.852Z,14.27
2022-11-28T06:58:42.676Z,9.50
2022-11-28T07:01:11.722Z,8.68
2022-11-28T07:03:39.703Z,8.70
2022-11-28T07:06:07.488Z,9.27
2022-11-28T07:08:35.226Z,7.30
2022-11-28T07:11:09.493Z,12.03
2022-11-28T07:13:36.683Z,9.73
2022-11-28T07:16:04.432Z,11.90
2022-11-28T07:18:31.491Z,11.10
2022-11-28T07:21:00.647Z,16.17
2022-11-28T07:23:27.635Z,10.02
2022-11-28T07:26:02.222Z,15.40
2022-11-28T07:28:30.654Z,14.90
2022-11-28T07:31:19.374Z,14.13
2022-11-28T07:33:49.041Z,11.50
2022-11-28T07:36:19.451Z,13.38
2022-11-28T07:38:47.806Z,11.43
2022-11-28T07:41:15.451Z,11.80
2022-11-28T07:43:43.951Z,10.30
2022-11-28T07:51:12.861Z,10.23
2022-11-28T07:53:40.355Z,10.35
2022-11-28T07:56:10.865Z,8.55
2022-11-28T07:58:39.035Z,7.68
2022-11-28T08:01:18.528Z,12.10
2022-11-28T08:03:47.101Z,9.70
2022-11-28T08:06:17.127Z,8.68
2022-11-28T08:08:47.069Z,9.15
2022-11-28T08:11:15.950Z,6.50
2022-11-28T08:13:43.845Z,10.57
2022-11-28T08:16:19.769Z,7.38
2022-11-28T08:18:48.014Z,12.52
2022-11-28T08:21:23.758Z,6.75
2022-11-28T08:23:52.253Z,8.88
2022-11-28T08:26:23.047Z,8.32
2022-11-28T08:28:54.123Z,9.07
2022-11-28T08:31:27.344Z,12.48
2022-11-28T08:33:58.266Z,11.35
2022-11-28T08:36:25.337Z,11.75
2022-11-28T08:41:39.835Z,7.85
2022-11-28T08:44:07.528Z,7.40
2022-11-28T08:46:34.493Z,8.10
2022-11-28T08:49:04.671Z,9.07
2022-11-28T08:51:32.208Z,10.77
2022-11-28T08:54:00.148Z,9.02
2022-11-28T08:56:27.928Z,6.03
2022-11-28T08:58:55.775Z,8.75
2022-11-28T09:01:25.591Z,8.80
2022-11-28T09:03:54.436Z,6.70
2022-11-28T09:06:22.277Z,8.82
2022-11-28T09:08:50.605Z,8.07
2022-11-28T09:11:20.887Z,7.55
2022-11-28T09:13:47.975Z,8.63
2022-11-28T09:16:16.067Z,8.80
2022-11-28T09:18:43.157Z,10.90
2022-11-28T09:21:12.312Z,12.32
2022-11-28T09:23:41.391Z,10.23
2022-11-28T09:26:16.498Z,8.63
2022-11-28T09:28:44.119Z,7.63
2022-11-28T09:31:12.633Z,10.73
2022-11-28T09:33:40.220Z,7.93
2022-11-28T09:36:20.793Z,9.45
2022-11-28T09:38:48.246Z,11.23
2022-11-28T09:41:36.382Z,9.55
2022-11-28T09:44:16.229Z,10.80
2022-11-28T09:46:44.190Z,7.35
2022-11-28T09:49:29.704Z,9.18
2022-11-28T09:52:14.848Z,6.78
2022-11-28T09:55:05.979Z,5.22
2022-11-28T09:57:40.314Z,4.53
2022-11-28T10:00:17.391Z,6.57
2022-11-28T10:03:21.981Z,5.85
2022-11-28T10:06:09.891Z,6.90
2022-11-28T10:09:01.983Z,6.78
2022-11-28T10:11:47.614Z,6.10
2022-11-28T10:14:44.793Z,7.60
2022-11-28T10:17:20.708Z,4.10
2022-11-28T10:20:02.909Z,6.55
2022-11-28T10:22:44.707Z,7.65
2022-11-28T10:25:23.736Z,7.43
2022-11-28T10:27:51.351Z,5.20
2022-11-28T10:30:27.584Z,4.82
2022-11-28T10:33:09.901Z,8.00
2022-11-28T10:35:46.293Z,7.93
2022-11-28T10:38:16.126Z,8.25
2022-11-28T10:40:47.057Z,9.65
2022-11-28T10:43:31.963Z,6.75
2022-11-28T10:46:30.153Z,7.20
2022-11-28T10:51:51.535Z,7.45
2022-11-28T10:54:40.517Z,10.00
2022-11-28T10:57:16.755Z,9.13
2022-11-28T11:00:01.797Z,7.93
2022-11-28T11:02:40.115Z,8.10
2022-11-28T11:05:11.745Z,8.60
2022-11-28T11:07:39.100Z,10.55
2022-11-28T11:10:25.188Z,8.27
2022-11-28T11:12:52.908Z,7.90
2022-11-28T11:15:24.861Z,8.40
2022-11-28T11:17:52.026Z,11.43
2022-11-28T11:20:36.862Z,7.97
2022-11-28T11:23:17.301Z,8.82
2022-11-28T11:25:55.147Z,8.32
2022-11-28T11:28:42.789Z,5.05
2022-11-28T11:31:39.048Z,7.28
2022-11-28T11:34:12.973Z,8.55
2022-11-28T11:36:39.993Z,9.93
2022-11-28T11:39:18.948Z,10.05
2022-11-28T11:41:51.689Z,7.63
2022-11-28T11:44:29.450Z,5.47
2022-11-28T11:47:05.669Z,8.40
2022-11-28T11:49:35.293Z,7.45
2022-11-28T11:52:24.090Z,5.55
2022-11-28T11:54:57.200Z,8.70
2022-11-28T11:57:43.133Z,4.68
2022-11-28T12:00:10.339Z,8.68
2022-11-28T12:03:04.726Z,4.72
2022-11-28T12:06:12.782Z,6.25
2022-11-28T12:09:00.632Z,6.10
2022-11-28T12:11:46.547Z,8.30
2022-11-28T12:14:32.591Z,10.20
2022-11-28T12:17:25.669Z,7.68
2022-11-28T12:20:05.329Z,5.10
2022-11-28T12:22:32.249Z,6.97
2022-11-28T12:25:04.218Z,3.85
2022-11-28T12:27:37.027Z,4.95
2022-11-28T12:30:22.009Z,6.53
2022-11-28T12:32:57.972Z,4.50
2022-11-28T12:35:38.379Z,5.20
2022-11-28T12:38:11.910Z,4.15
2022-11-28T12:41:15.055Z,5.28
2022-11-28T12:43:54.210Z,6.10
2022-11-28T12:46:39.760Z,6.68
2022-11-28T12:49:19.828Z,9.43
2022-11-28T12:52:10.924Z,4.30
2022-11-28T12:54:55.935Z,4.10
2022-11-28T12:57:43.763Z,7.57
2022-11-28T13:00:20.441Z,4.53
2022-11-28T13:03:19.108Z,8.70
2022-11-28T13:06:26.677Z,5.32
2022-11-28T13:09:03.025Z,7.95
2022-11-28T13:11:40.125Z,8.88
2022-11-28T13:14:34.544Z,5.32
2022-11-28T13:17:19.513Z,6.60
2022-11-28T13:20:13.824Z,5.93
2022-11-28T13:22:46.663Z,5.28
2022-11-28T13:25:38.743Z,6.30
2022-11-28T13:28:19.613Z,5.40
2022-11-28T13:30:55.839Z,5.95
2022-11-28T13:33:55.155Z,9.27
2022-11-28T13:39:47.127Z,5.00
2022-11-28T13:42:59.044Z,5.10
2022-11-28T13:45:32.429Z,4.65
2022-11-28T13:48:00.921Z,8.48
2022-11-28T13:53:04.180Z,7.57
2022-11-28T13:55:46.789Z,4.40
2022-11-28T13:58:17.126Z,5.45
2022-11-28T14:00:59.952Z,7.95
2022-11-28T14:03:27.069Z,9.32
2022-11-28T14:05:57.369Z,4.55
2022-11-28T14:08:40.400Z,5.68
2022-11-28T14:11:10.513Z,6.50
2022-11-28T14:13:50.018Z,3.72
2022-11-28T14:16:26.357Z,3.85
2022-11-28T14:19:39.795Z,7.25
2022-11-28T14:22:24.891Z,8.20
2022-11-28T14:25:24.185Z,6.53
2022-11-28T14:28:14.776Z,5.82
2022-11-28T14:30:44.522Z,7.95
2022-11-28T14:33:36.936Z,6.90
2022-11-28T14:36:21.332Z,6.78
2022-11-28T14:39:00.899Z,8.02
2022-11-28T14:41:29.166Z,6.57
2022-11-28T14:44:34.925Z,7.55
2022-11-28T14:47:13.544Z,5.47
2022-11-28T14:49:40.549Z,8.65
2022-11-28T14:55:12.434Z,7.13
2022-11-28T14:58:03.259Z,8.90
2022-11-28T15:00:47.365Z,6.13
2022-11-28T15:03:17.304Z,6.90
2022-11-28T15:05:52.708Z,7.45
2022-11-28T15:09:04.865Z,5.03
2022-11-28T15:12:17.326Z,5.45
2022-11-28T15:14:51.906Z,6.28
2022-11-28T15:17:23.043Z,6.45
2022-11-28T15:19:51.081Z,8.13
2022-11-28T15:22:47.576Z,9.82
2022-11-28T15:25:23.217Z,8.95
2022-11-28T15:27:51.446Z,9.43
2022-11-28T15:30:23.751Z,7.00
2022-11-28T15:33:00.134Z,9.38
2022-11-28T15:35:28.545Z,5.30
2022-11-28T15:37:58.231Z,8.10
2022-11-28T15:40:32.485Z,6.38
2022-11-28T15:43:01.118Z,7.05
2022-11-28T15:45:32.291Z,9.43
2022-11-28T15:47:59.424Z,8.02
2022-11-28T15:50:29.553Z,8.55
2022-11-28T15:53:15.234Z,8.55
2022-11-28T15:55:43.950Z,9.13
2022-11-28T15:58:15.070Z,7.50
2022-11-28T16:00:45.373Z,7.82
2022-11-28T16:03:22.621Z,8.18
2022-11-28T16:05:52.573Z,8.23
2022-11-28T16:08:47.542Z,6.68
2022-11-28T16:11:19.858Z,7.78
2022-11-28T16:13:48.003Z,8.02
2022-11-28T16:16:28.835Z,9.32
2022-11-28T16:19:05.829Z,9.52
2022-11-28T16:21:40.153Z,8.32
2022-11-28T16:24:24.192Z,9.95
2022-11-28T16:27:00.197Z,8.13
2022-11-28T16:29:34.647Z,9.68
2022-11-28T16:32:39.991Z,7.13
2022-11-28T16:35:12.374Z,9.10
2022-11-28T16:37:39.579Z,9.82
2022-11-28T16:40:21.776Z,10.90
2022-11-28T16:43:04.355Z,12.88
2022-11-28T16:45:33.295Z,12.32
2022-11-28T16:48:09.334Z,14.95
2022-11-28T16:50:37.706Z,16.20
2022-11-28T16:53:05.458Z,15.82
2022-11-28T16:55:32.455Z,17.60
2022-11-28T16:58:07.347Z,17.35
2022-11-28T17:00:35.291Z,18.80
2022-11-28T17:03:03.503Z,16.15
2022-11-28T17:05:30.882Z,14.38
2022-11-28T17:07:58.100Z,12.23
2022-11-28T17:10:25.626Z,13.35
2022-11-28T17:12:52.633Z,17.88
2022-11-28T17:15:22.814Z,17.85
2022-11-28T17:17:49.809Z,14.38
2022-11-28T17:20:17.905Z,12.98
2022-11-28T17:22:47.764Z,9.82
2022-11-28T17:25:20.447Z,10.80
2022-11-28T17:27:48.279Z,13.25
2022-11-28T17:30:16.937Z,11.02
2022-11-28T17:35:14.278Z,14.90
2022-11-28T17:37:41.244Z,15.18
2022-11-28T17:40:27.179Z,13.35
2022-11-28T17:42:54.239Z,15.13
2022-11-28T17:45:22.723Z,18.23
2022-11-28T17:47:49.645Z,16.10
2022-11-28T17:50:17.643Z,16.75
2022-11-28T17:52:44.776Z,17.92
2022-11-28T17:55:12.077Z,16.23
2022-11-28T17:57:39.402Z,16.30
2022-11-28T18:00:09.236Z,17.20
2022-11-28T18:02:43.368Z,13.80
2022-11-28T18:05:10.740Z,15.60
2022-11-28T18:07:39.536Z,12.90
2022-11-28T18:10:09.950Z,13.90
2022-11-28T18:12:38.220Z,13.48
2022-11-28T18:15:05.705Z,15.80
2022-11-28T18:17:33.106Z,14.70
2022-11-28T18:20:00.088Z,15.55
2022-11-28T18:22:27.876Z,13.03
2022-11-28T18:24:55.205Z,14.88
2022-11-28T18:27:22.811Z,15.18
2022-11-28T18:29:50.041Z,16.45
2022-11-28T18:32:17.317Z,14.00
2022-11-28T18:34:44.370Z,15.05
2022-11-28T18:37:11.489Z,12.73
2022-11-28T18:39:38.592Z,15.07
2022-11-28T18:42:05.928Z,16.10
2022-11-28T18:44:33.597Z,17.15
2022-11-28T18:47:00.637Z,15.15
2022-11-28T18:49:27.685Z,14.48
2022-11-28T18:51:56.797Z,17.45
2022-11-28T18:54:23.819Z,15.10
2022-11-28T18:56:50.994Z,15.13
2022-11-28T18:59:18.273Z,16.60
2022-11-28T19:01:45.253Z,15.05
2022-11-28T19:04:13.648Z,19.95
2022-11-28T19:06:41.263Z,18.80
2022-11-28T19:09:12.124Z,17.15
2022-11-28T19:11:40.542Z,18.73
2022-11-28T19:14:08.576Z,23.40
2022-11-28T19:16:37.831Z,21.05
2022-11-28T19:19:06.432Z,20.20
2022-11-28T19:21:35.953Z,19.15
2022-11-28T19:24:04.372Z,17.30
2022-11-28T19:26:34.077Z,25.10
2022-11-28T19:29:03.094Z,23.10
2022-11-28T19:31:35.510Z,21.30
2022-11-28T19:34:05.541Z,20.60
2022-11-28T19:36:41.105Z,20.05
2022-11-28T19:39:12.700Z,19.90
2022-11-28T19:41:40.210Z,24.48
2022-11-28T19:44:09.430Z,43.92
2022-11-28T19:46:36.720Z,33.90
2022-11-28T19:49:09.012Z,32.45
2022-11-28T19:51:36.109Z,29.27
2022-11-28T19:54:04.210Z,30.80
2022-11-28T19:56:33.369Z,30.02
2022-11-28T19:59:00.649Z,30.08
2022-11-28T20:01:28.404Z,30.30
2022-11-28T20:03:55.839Z,27.80
2022-11-28T20:06:28.912Z,27.30
2022-11-28T20:08:58.393Z,28.95
2022-11-28T20:11:28.647Z,28.67
2022-11-28T20:14:05.043Z,27.45
2022-11-28T20:16:33.626Z,26.88
2022-11-28T20:19:01.923Z,27.73
2022-11-28T20:21:29.801Z,27.63
2022-11-28T20:26:27.093Z,27.08
2022-11-28T20:28:56.173Z,24.70
2022-11-28T20:31:36.542Z,24.45
2022-11-28T20:34:05.387Z,26.45
2022-11-28T20:36:33.681Z,23.67
2022-11-28T20:39:01.517Z,26.55
2022-11-28T20:41:29.273Z,24.77
2022-11-28T20:43:56.782Z,24.67
2022-11-28T20:46:32.787Z,27.92
2022-11-28T20:49:06.015Z,27.95
2022-11-28T20:51:34.789Z,26.92
2022-11-28T20:54:02.613Z,27.27
2022-11-28T20:56:31.880Z,26.57
2022-11-28T20:59:00.804Z,31.30
2022-11-28T21:01:33.276Z,30.15
2022-11-28T21:04:04.868Z,36.47
2022-11-28T21:06:32.081Z,48.10
2022-11-28T21:09:04.290Z,36.20
2022-11-28T21:11:55.636Z,39.70
2022-11-28T21:14:19.397Z,35.07
2022-11-28T21:16:46.475Z,32.05
2022-11-28T21:19:13.544Z,34.25
2022-11-28T21:21:40.868Z,32.47
2022-11-28T21:24:11.068Z,36.60
2022-11-28T21:26:43.193Z,37.55
2022-11-28T21:29:13.874Z,31.20
2022-11-28T21:31:43.457Z,37.13
2022-11-28T21:34:16.701Z,30.20
2022-11-28T21:36:44.304Z,26.83
2022-11-28T21:39:17.373Z,28.48
2022-11-28T21:41:44.840Z,29.85
2022-11-28T21:44:11.997Z,28.63
2022-11-28T21:46:39.153Z,28.08
2022-11-28T21:49:06.155Z,26.60
2022-11-28T21:51:37.754Z,25.40
2022-11-28T21:54:04.860Z,28.73
2022-11-28T21:56:32.138Z,31.17
2022-11-28T21:58:59.320Z,29.30
2022-11-28T22:01:26.544Z,29.25
2022-11-28T22:03:59.050Z,28.67
2022-11-28T22:06:29.557Z,32.88
2022-11-28T22:08:57.540Z,30.73
2022-11-28T22:11:25.361Z,32.03
2022-11-28T22:13:52.905Z,30.48
2022-11-28T22:16:26.363Z,34.97
2022-11-28T22:18:55.371Z,32.22
2022-11-28T22:24:10.619Z,31.90
2022-11-28T22:26:38.213Z,32.33
2022-11-28T22:29:05.489Z,28.77
2022-11-28T22:31:32.941Z,31.58
2022-11-28T22:34:00.128Z,32.05
2022-11-28T22:36:27.339Z,33.05
2022-11-28T22:38:55.745Z,30.08
2022-11-28T22:41:28.794Z,33.38
2022-11-28T22:44:00.828Z,30.08
2022-11-28T22:46:29.870Z,31.40
2022-11-28T22:49:02.455Z,33.70
2022-11-28T22:51:31.523Z,28.70
2022-11-28T22:54:01.254Z,31.73
2022-11-28T22:56:31.625Z,30.90
2022-11-28T22:58:59.397Z,32.25
2022-11-28T23:01:29.690Z,29.38
2022-11-28T23:03:57.222Z,26.75
2022-11-28T23:06:27.058Z,32.10
2022-11-28T23:08:55.840Z,32.10
2022-11-28T23:11:27.808Z,34.78
2022-11-28T23:13:55.391Z,31.83
2022-11-28T23:16:38.488Z,27.50
2022-11-28T23:19:10.466Z,28.98
2022-11-28T23:21:41.706Z,27.83
2022-11-28T23:24:17.579Z,27.92
2022-11-28T23:26:46.499Z,25.92
2022-11-28T23:29:14.568Z,25.23
2022-11-28T23:31:43.376Z,30.67
2022-11-28T23:34:11.253Z,28.67
2022-11-28T23:36:42.959Z,29.02
2022-11-28T23:39:14.182Z,32.40
2022-11-28T23:41:41.868Z,26.60
2022-11-28T23:44:10.817Z,29.63
2022-11-28T23:46:38.202Z,31.95
2022-11-28T23:49:05.782Z,30.90
2022-11-28T23:51:32.997Z,25.48
2022-11-28T23:54:00.087Z,29.33
2022-11-28T23:56:32.559Z,27.35
2022-11-28T23:59:01.767Z,27.35
